N72ME CYXU-CYTZ
Flight info
| Callsign | N72ME |
|---|---|
| Flight time | 0h 45m |
| Altitude | 11000 |
| Route | CYXU2 DERLO T781 OLAMO |
| Aircraft | DA40/L-VGD/C |
Departure
| Time | 2026-04-26 16:47 |
|---|---|
| Airport | London International Airport (CYXU) |
Arrival
| Time | 2026-04-26 17:33 |
|---|---|
| Airport | Billy Bishop Toronto City Airport (CYTZ) |
| Time | Latitude | Longitude | Altitude | Speed | Heading |
|---|---|---|---|---|---|
| 2026-04-26 16:28 | 43.02851 | -81.14779 | 898 ft | 0 kts | 285° |
| 2026-04-26 16:41 | 43.02874 | -81.14778 | 898 ft | 10 kts | 25° |
| 2026-04-26 16:41 | 43.02926 | -81.14788 | 896 ft | 9 kts | 322° |
| 2026-04-26 16:42 | 43.03015 | -81.14862 | 895 ft | 20 kts | 315° |
| 2026-04-26 16:42 | 43.03131 | -81.15008 | 897 ft | 21 kts | 312° |
| 2026-04-26 16:42 | 43.03237 | -81.15132 | 899 ft | 23 kts | 319° |
| 2026-04-26 16:42 | 43.03341 | -81.15254 | 901 ft | 22 kts | 317° |
| 2026-04-26 16:43 | 43.03471 | -81.15412 | 901 ft | 24 kts | 317° |
| 2026-04-26 16:43 | 43.03608 | -81.15578 | 899 ft | 29 kts | 317° |
| 2026-04-26 16:43 | 43.03704 | -81.15727 | 898 ft | 17 kts | 272° |
| 2026-04-26 16:43 | 43.03680 | -81.15908 | 901 ft | 22 kts | 258° |
| 2026-04-26 16:44 | 43.03651 | -81.16123 | 903 ft | 22 kts | 256° |
| 2026-04-26 16:44 | 43.03644 | -81.16261 | 905 ft | 12 kts | 322° |
| 2026-04-26 16:44 | 43.03717 | -81.16286 | 904 ft | 7 kts | 350° |
| 2026-04-26 16:44 | 43.03729 | -81.16290 | 904 ft | 0 kts | 345° |
| 2026-04-26 16:46 | 43.03736 | -81.16292 | 904 ft | 5 kts | 347° |
| 2026-04-26 16:46 | 43.03829 | -81.16306 | 906 ft | 19 kts | 30° |
| 2026-04-26 16:47 | 43.03864 | -81.16032 | 901 ft | 57 kts | 77° |
| 2026-04-26 16:47 | 43.03946 | -81.15378 | 1104 ft | 73 kts | 81° |
| 2026-04-26 16:47 | 43.04048 | -81.14660 | 1314 ft | 81 kts | 79° |
| 2026-04-26 16:47 | 43.04147 | -81.13885 | 1594 ft | 83 kts | 79° |
| 2026-04-26 16:48 | 43.04282 | -81.13116 | 1891 ft | 83 kts | 77° |
| 2026-04-26 16:48 | 43.04424 | -81.12342 | 2113 ft | 88 kts | 77° |
| 2026-04-26 16:48 | 43.04524 | -81.11803 | 2252 ft | 88 kts | 77° |
| 2026-04-26 16:48 | 43.04692 | -81.10992 | 2437 ft | 91 kts | 76° |
| 2026-04-26 16:49 | 43.04874 | -81.10220 | 2690 ft | 86 kts | 75° |
| 2026-04-26 16:49 | 43.05075 | -81.09438 | 2868 ft | 92 kts | 74° |
| 2026-04-26 16:49 | 43.05292 | -81.08583 | 2992 ft | 98 kts | 71° |
| 2026-04-26 16:49 | 43.05558 | -81.07720 | 3132 ft | 100 kts | 65° |
| 2026-04-26 16:50 | 43.05915 | -81.06862 | 3166 ft | 109 kts | 64° |
| 2026-04-26 16:50 | 43.06309 | -81.05894 | 3057 ft | 120 kts | 64° |
| 2026-04-26 16:50 | 43.06685 | -81.04943 | 3229 ft | 104 kts | 65° |
| 2026-04-26 16:50 | 43.06996 | -81.04153 | 3540 ft | 90 kts | 64° |
| 2026-04-26 16:51 | 43.07279 | -81.03372 | 3724 ft | 93 kts | 62° |
| 2026-04-26 16:51 | 43.07687 | -81.02711 | 3998 ft | 89 kts | 65° |
| 2026-04-26 16:51 | 43.07854 | -81.01911 | 4298 ft | 87 kts | 75° |
| 2026-04-26 16:51 | 43.08029 | -81.01093 | 4502 ft | 94 kts | 73° |
| 2026-04-26 16:52 | 43.08197 | -81.00236 | 4745 ft | 93 kts | 72° |
| 2026-04-26 16:52 | 43.08297 | -80.99661 | 4899 ft | 95 kts | 73° |
| 2026-04-26 16:52 | 43.08512 | -80.98513 | 5212 ft | 92 kts | 74° |
| 2026-04-26 16:52 | 43.08664 | -80.97642 | 5420 ft | 93 kts | 73° |
| 2026-04-26 16:53 | 43.08812 | -80.96791 | 5642 ft | 94 kts | 72° |
| 2026-04-26 16:53 | 43.08965 | -80.95901 | 5837 ft | 97 kts | 72° |
| 2026-04-26 16:53 | 43.09118 | -80.95009 | 6050 ft | 98 kts | 73° |
| 2026-04-26 16:53 | 43.09273 | -80.94087 | 6249 ft | 100 kts | 71° |
| 2026-04-26 16:54 | 43.09429 | -80.93164 | 6482 ft | 101 kts | 71° |
| 2026-04-26 16:54 | 43.09585 | -80.92234 | 6711 ft | 99 kts | 69° |
| 2026-04-26 16:54 | 43.09742 | -80.91314 | 6905 ft | 102 kts | 72° |
| 2026-04-26 16:54 | 43.09902 | -80.90370 | 7133 ft | 101 kts | 73° |
| 2026-04-26 16:55 | 43.10064 | -80.89411 | 7316 ft | 104 kts | 72° |
| 2026-04-26 16:55 | 43.10226 | -80.88446 | 7527 ft | 104 kts | 72° |
| 2026-04-26 16:55 | 43.10392 | -80.87471 | 7721 ft | 106 kts | 72° |
| 2026-04-26 16:55 | 43.10554 | -80.86510 | 7936 ft | 105 kts | 72° |
| 2026-04-26 16:56 | 43.10892 | -80.84514 | 8306 ft | 110 kts | 73° |
| 2026-04-26 16:56 | 43.11064 | -80.83493 | 8519 ft | 109 kts | 72° |
| 2026-04-26 16:56 | 43.11235 | -80.82478 | 8720 ft | 110 kts | 70° |
| 2026-04-26 16:57 | 43.11407 | -80.81457 | 8929 ft | 111 kts | 71° |
| 2026-04-26 16:57 | 43.11581 | -80.80421 | 9120 ft | 112 kts | 70° |
| 2026-04-26 16:57 | 43.11935 | -80.78320 | 9526 ft | 114 kts | 71° |
| 2026-04-26 16:58 | 43.12113 | -80.77257 | 9733 ft | 115 kts | 72° |
| 2026-04-26 16:58 | 43.12233 | -80.76548 | 9873 ft | 116 kts | 70° |
| 2026-04-26 16:58 | 43.12658 | -80.74016 | 10330 ft | 118 kts | 73° |
| 2026-04-26 16:59 | 43.12841 | -80.72925 | 10528 ft | 118 kts | 71° |
| 2026-04-26 16:59 | 43.13208 | -80.70729 | 10903 ft | 119 kts | 69° |
| 2026-04-26 17:00 | 43.13607 | -80.68372 | 11008 ft | 137 kts | 73° |
| 2026-04-26 17:00 | 43.14026 | -80.65827 | 10991 ft | 133 kts | 70° |
| 2026-04-26 17:00 | 43.14231 | -80.64604 | 10989 ft | 131 kts | 72° |
| 2026-04-26 17:01 | 43.14435 | -80.63391 | 10987 ft | 130 kts | 71° |
| 2026-04-26 17:01 | 43.14637 | -80.62187 | 10985 ft | 129 kts | 73° |
| 2026-04-26 17:01 | 43.14835 | -80.60990 | 10986 ft | 128 kts | 72° |
| 2026-04-26 17:01 | 43.15033 | -80.59802 | 10990 ft | 128 kts | 69° |
| 2026-04-26 17:02 | 43.15230 | -80.58615 | 10981 ft | 128 kts | 71° |
| 2026-04-26 17:02 | 43.15429 | -80.57433 | 10980 ft | 127 kts | 72° |
| 2026-04-26 17:02 | 43.15624 | -80.56248 | 10982 ft | 128 kts | 69° |
| 2026-04-26 17:02 | 43.15818 | -80.55064 | 10980 ft | 127 kts | 69° |
| 2026-04-26 17:03 | 43.16015 | -80.53882 | 10987 ft | 128 kts | 69° |
| 2026-04-26 17:03 | 43.16210 | -80.52712 | 10991 ft | 127 kts | 69° |
| 2026-04-26 17:03 | 43.16409 | -80.51523 | 10991 ft | 126 kts | 72° |
| 2026-04-26 17:03 | 43.16599 | -80.50363 | 10991 ft | 126 kts | 70° |
| 2026-04-26 17:04 | 43.16794 | -80.49175 | 10990 ft | 126 kts | 69° |
| 2026-04-26 17:04 | 43.16989 | -80.48000 | 10990 ft | 127 kts | 69° |
| 2026-04-26 17:04 | 43.17180 | -80.46839 | 10995 ft | 127 kts | 70° |
| 2026-04-26 17:04 | 43.17377 | -80.45658 | 10991 ft | 127 kts | 72° |
| 2026-04-26 17:05 | 43.17571 | -80.44478 | 10996 ft | 127 kts | 72° |
| 2026-04-26 17:05 | 43.17766 | -80.43295 | 10993 ft | 127 kts | 69° |
| 2026-04-26 17:05 | 43.17961 | -80.42112 | 10995 ft | 127 kts | 71° |
| 2026-04-26 17:05 | 43.18155 | -80.40928 | 10994 ft | 127 kts | 72° |
| 2026-04-26 17:06 | 43.18351 | -80.39742 | 10993 ft | 128 kts | 72° |
| 2026-04-26 17:06 | 43.18546 | -80.38550 | 10994 ft | 128 kts | 73° |
| 2026-04-26 17:06 | 43.18742 | -80.37363 | 10994 ft | 128 kts | 70° |
| 2026-04-26 17:06 | 43.18936 | -80.36180 | 10993 ft | 127 kts | 72° |
| 2026-04-26 17:07 | 43.19130 | -80.34997 | 10995 ft | 127 kts | 73° |
| 2026-04-26 17:07 | 43.19325 | -80.33813 | 11001 ft | 127 kts | 72° |
| 2026-04-26 17:07 | 43.19518 | -80.32629 | 10995 ft | 127 kts | 72° |
| 2026-04-26 17:07 | 43.19712 | -80.31444 | 10997 ft | 127 kts | 72° |
| 2026-04-26 17:08 | 43.19905 | -80.30259 | 10994 ft | 127 kts | 71° |
| 2026-04-26 17:08 | 43.20098 | -80.29075 | 11000 ft | 127 kts | 72° |
| 2026-04-26 17:08 | 43.20292 | -80.27892 | 11001 ft | 127 kts | 70° |
| 2026-04-26 17:08 | 43.20485 | -80.26708 | 11002 ft | 127 kts | 71° |
| 2026-04-26 17:09 | 43.20679 | -80.25528 | 11005 ft | 127 kts | 70° |
| 2026-04-26 17:09 | 43.20807 | -80.24744 | 11009 ft | 127 kts | 72° |
| 2026-04-26 17:09 | 43.21064 | -80.23167 | 11006 ft | 127 kts | 70° |
| 2026-04-26 17:09 | 43.21256 | -80.21986 | 11006 ft | 127 kts | 70° |
| 2026-04-26 17:10 | 43.21448 | -80.20805 | 11004 ft | 127 kts | 70° |
| 2026-04-26 17:10 | 43.21642 | -80.19618 | 11008 ft | 128 kts | 73° |
| 2026-04-26 17:10 | 43.21837 | -80.18433 | 11004 ft | 127 kts | 70° |
| 2026-04-26 17:10 | 43.22028 | -80.17242 | 11004 ft | 128 kts | 73° |
| 2026-04-26 17:11 | 43.22220 | -80.16058 | 11012 ft | 127 kts | 72° |
| 2026-04-26 17:11 | 43.22410 | -80.14881 | 11008 ft | 126 kts | 72° |
| 2026-04-26 17:11 | 43.22600 | -80.13707 | 11008 ft | 126 kts | 72° |
| 2026-04-26 17:11 | 43.22790 | -80.12537 | 11001 ft | 126 kts | 72° |
| 2026-04-26 17:12 | 43.23168 | -80.10193 | 11002 ft | 126 kts | 71° |
| 2026-04-26 17:12 | 43.23358 | -80.09017 | 11002 ft | 126 kts | 70° |
| 2026-04-26 17:13 | 43.23739 | -80.06667 | 11000 ft | 126 kts | 71° |
| 2026-04-26 17:13 | 43.23928 | -80.05489 | 11000 ft | 127 kts | 70° |
| 2026-04-26 17:13 | 43.24308 | -80.03128 | 11002 ft | 127 kts | 70° |
| 2026-04-26 17:14 | 43.24499 | -80.01947 | 10999 ft | 127 kts | 72° |
| 2026-04-26 17:14 | 43.24877 | -79.99589 | 10998 ft | 126 kts | 70° |
| 2026-04-26 17:14 | 43.25063 | -79.98428 | 10997 ft | 126 kts | 70° |
| 2026-04-26 17:15 | 43.25440 | -79.96076 | 10996 ft | 126 kts | 70° |
| 2026-04-26 17:15 | 43.25629 | -79.94902 | 10995 ft | 126 kts | 72° |
| 2026-04-26 17:15 | 43.25816 | -79.93733 | 10996 ft | 126 kts | 71° |
| 2026-04-26 17:16 | 43.26004 | -79.92561 | 10997 ft | 126 kts | 70° |
| 2026-04-26 17:16 | 43.26192 | -79.91388 | 10999 ft | 126 kts | 70° |
| 2026-04-26 17:16 | 43.26378 | -79.90214 | 11001 ft | 126 kts | 70° |
| 2026-04-26 17:16 | 43.26576 | -79.89039 | 10999 ft | 126 kts | 67° |
| 2026-04-26 17:17 | 43.27027 | -79.88057 | 11001 ft | 120 kts | 40° |
| 2026-04-26 17:17 | 43.27636 | -79.87276 | 11005 ft | 119 kts | 38° |
| 2026-04-26 17:17 | 43.28229 | -79.86480 | 11006 ft | 119 kts | 39° |
| 2026-04-26 17:17 | 43.28826 | -79.85688 | 11002 ft | 119 kts | 38° |
| 2026-04-26 17:18 | 43.29422 | -79.84896 | 11005 ft | 119 kts | 40° |
| 2026-04-26 17:18 | 43.30017 | -79.84105 | 11006 ft | 119 kts | 38° |
| 2026-04-26 17:18 | 43.30611 | -79.83311 | 11011 ft | 120 kts | 41° |
| 2026-04-26 17:18 | 43.31169 | -79.82452 | 10993 ft | 123 kts | 45° |
| 2026-04-26 17:19 | 43.32391 | -79.80437 | 10308 ft | 143 kts | 47° |
| 2026-04-26 17:19 | 43.33031 | -79.79385 | 9978 ft | 142 kts | 46° |
| 2026-04-26 17:19 | 43.33650 | -79.78364 | 9655 ft | 136 kts | 46° |
| 2026-04-26 17:20 | 43.34238 | -79.77396 | 9356 ft | 132 kts | 46° |
| 2026-04-26 17:20 | 43.34436 | -79.77071 | 9254 ft | 131 kts | 46° |
| 2026-04-26 17:20 | 43.35394 | -79.75499 | 8770 ft | 128 kts | 47° |
| 2026-04-26 17:20 | 43.35962 | -79.74567 | 8486 ft | 127 kts | 47° |
| 2026-04-26 17:21 | 43.36526 | -79.73640 | 8197 ft | 126 kts | 47° |
| 2026-04-26 17:21 | 43.37087 | -79.72718 | 7912 ft | 126 kts | 47° |
| 2026-04-26 17:21 | 43.37647 | -79.71796 | 7631 ft | 126 kts | 48° |
| 2026-04-26 17:21 | 43.38213 | -79.70867 | 7344 ft | 127 kts | 48° |
| 2026-04-26 17:22 | 43.38781 | -79.69931 | 7056 ft | 128 kts | 49° |
| 2026-04-26 17:22 | 43.39357 | -79.68983 | 6763 ft | 127 kts | 49° |
| 2026-04-26 17:22 | 43.39916 | -79.68061 | 6481 ft | 127 kts | 49° |
| 2026-04-26 17:22 | 43.40476 | -79.67137 | 6193 ft | 125 kts | 50° |
| 2026-04-26 17:23 | 43.41030 | -79.66225 | 5913 ft | 124 kts | 50° |
| 2026-04-26 17:23 | 43.41580 | -79.65318 | 5634 ft | 123 kts | 50° |
| 2026-04-26 17:23 | 43.42126 | -79.64417 | 5356 ft | 122 kts | 51° |
| 2026-04-26 17:23 | 43.42670 | -79.63519 | 5076 ft | 122 kts | 51° |
| 2026-04-26 17:24 | 43.43211 | -79.62626 | 4796 ft | 121 kts | 51° |
| 2026-04-26 17:24 | 43.43747 | -79.61741 | 4515 ft | 120 kts | 51° |
| 2026-04-26 17:24 | 43.44288 | -79.60870 | 4244 ft | 120 kts | 46° |
| 2026-04-26 17:24 | 43.44981 | -79.60239 | 3974 ft | 120 kts | 32° |
| 2026-04-26 17:25 | 43.45700 | -79.59647 | 3701 ft | 120 kts | 34° |
| 2026-04-26 17:25 | 43.46417 | -79.59051 | 3424 ft | 120 kts | 34° |
| 2026-04-26 17:25 | 43.47132 | -79.58456 | 3150 ft | 120 kts | 34° |
| 2026-04-26 17:25 | 43.47844 | -79.57865 | 2880 ft | 119 kts | 34° |
| 2026-04-26 17:26 | 43.48552 | -79.57277 | 2610 ft | 118 kts | 34° |
| 2026-04-26 17:26 | 43.49255 | -79.56692 | 2340 ft | 118 kts | 34° |
| 2026-04-26 17:26 | 43.49954 | -79.56105 | 2071 ft | 117 kts | 34° |
| 2026-04-26 17:26 | 43.50651 | -79.55528 | 1806 ft | 117 kts | 33° |
| 2026-04-26 17:27 | 43.51348 | -79.54952 | 1545 ft | 116 kts | 33° |
| 2026-04-26 17:27 | 43.51997 | -79.54415 | 1520 ft | 102 kts | 34° |
| 2026-04-26 17:27 | 43.52609 | -79.53905 | 1514 ft | 105 kts | 34° |
| 2026-04-26 17:27 | 43.53236 | -79.53382 | 1512 ft | 106 kts | 34° |
| 2026-04-26 17:28 | 43.53865 | -79.52857 | 1513 ft | 106 kts | 34° |
| 2026-04-26 17:28 | 43.54495 | -79.52330 | 1513 ft | 106 kts | 33° |
| 2026-04-26 17:28 | 43.55145 | -79.51788 | 1516 ft | 113 kts | 33° |
| 2026-04-26 17:28 | 43.55829 | -79.51218 | 1521 ft | 116 kts | 35° |
| 2026-04-26 17:29 | 43.56526 | -79.50636 | 1526 ft | 118 kts | 33° |
| 2026-04-26 17:29 | 43.56755 | -79.50444 | 1529 ft | 119 kts | 33° |
| 2026-04-26 17:29 | 43.57955 | -79.49443 | 1534 ft | 121 kts | 34° |
| 2026-04-26 17:29 | 43.58646 | -79.48789 | 1521 ft | 120 kts | 46° |
| 2026-04-26 17:30 | 43.59117 | -79.47878 | 1520 ft | 111 kts | 57° |
| 2026-04-26 17:30 | 43.59520 | -79.47105 | 1423 ft | 90 kts | 57° |
| 2026-04-26 17:30 | 43.59877 | -79.46422 | 1308 ft | 84 kts | 58° |
| 2026-04-26 17:30 | 43.60206 | -79.45791 | 1195 ft | 81 kts | 58° |
| 2026-04-26 17:31 | 43.60529 | -79.45174 | 1091 ft | 77 kts | 59° |
| 2026-04-26 17:31 | 43.60839 | -79.44577 | 995 ft | 76 kts | 58° |
| 2026-04-26 17:31 | 43.61150 | -79.43978 | 896 ft | 79 kts | 59° |
| 2026-04-26 17:31 | 43.61498 | -79.43364 | 797 ft | 84 kts | 47° |
| 2026-04-26 17:32 | 43.61952 | -79.42923 | 708 ft | 73 kts | 46° |
| 2026-04-26 17:32 | 43.62242 | -79.42415 | 643 ft | 66 kts | 68° |
| 2026-04-26 17:32 | 43.62403 | -79.41793 | 572 ft | 72 kts | 75° |
| 2026-04-26 17:32 | 43.62562 | -79.41109 | 448 ft | 77 kts | 73° |
| 2026-04-26 17:33 | 43.62726 | -79.40432 | 308 ft | 70 kts | 75° |
| 2026-04-26 17:33 | 43.62867 | -79.39834 | 258 ft | 59 kts | 68° |
| 2026-04-26 17:33 | 43.62979 | -79.39386 | 260 ft | 36 kts | 72° |
| 2026-04-26 17:34 | 43.63039 | -79.39185 | 260 ft | 11 kts | 235° |
| 2026-04-26 17:34 | 43.63085 | -79.39270 | 258 ft | 10 kts | 302° |
| 2026-04-26 17:34 | 43.63074 | -79.39365 | 256 ft | 14 kts | 249° |
| 2026-04-26 17:34 | 43.63035 | -79.39541 | 255 ft | 20 kts | 261° |
| 2026-04-26 17:35 | 43.63005 | -79.39701 | 255 ft | 12 kts | 296° |
| 2026-04-26 17:35 | 43.63037 | -79.39748 | 254 ft | 11 kts | 304° |
| 2026-04-26 17:35 | 43.63088 | -79.39781 | 254 ft | 0 kts | 311° |